Pagina principale
METAR-TAF:

METAR-TAF

Aeroporti :

Batajnica, Serbia

latitudine: 44-56-07N, longitudine: 020-15-27E, altezza: 86 m

Osservazione

Il bollettino è stato emesso 38 minuti fa, alle 13:30 UTC
Vento 4 kt da est, variando fra nord/nord-est e sud
Temperature 30°C
Umidità 43%
Pressione 1015 hPa
Visibilità 10 km o più
nessuna nube inferiore a 1500 m e nessun cumulonembo

METAR: LYBT 171330Z 08004KT 020V170 CAVOK 30/16 Q1015 NOSIG

Ora: 16:08 (14:08 UTC)

Previsione

Il bollettino è stato emesso 3 ore e 8 minuti fa, alle 11:00 UTC
Previsione valida dal 17 alle 12 UTC al 18 alle 12 UTC
Vento 5 kt da nord-est
Visibilità 10 km o più
nessuna nube inferiore a 1500 m e nessun cumulonembo

TAF: LYBT 171100Z 1712/1812 04005KT CAVOK TX33/1812Z TN18/1803Z

Osservazioni e previsioni meteorologiche di più di 4000 aeroporti (messaggi METAR e TAF).

Le stazioni disponibili sono rappresentate dai dischi gialli e rossi sulla carta.

Puntare il mouse per vedere il nome della stazione.

Clicca sopra per visualizzare le osservazioni e previsioni meteorologiche.

Per cambiare la mappa : fare clic sui pulsanti verdi con una croce nera per ingrandire, il pulsante verde con un trattino per diminuire, o sulla freccia verde per le mappe adiacenti.


METAR-TAF: